sensor_id;sensor_type;location;lat;lon;timestamp;pressure;altitude;pressure_sealevel;temperature;humidity
80414;BME280;69758;52.580;13.068;2024-03-02T00:02:25;100386.58;;;13.43;33.46
80414;BME280;69758;52.580;13.068;2024-03-02T00:04:50;100382.67;;;13.44;33.43
80414;BME280;69758;52.580;13.068;2024-03-02T00:07:16;100382.98;;;13.43;33.44
80414;BME280;69758;52.580;13.068;2024-03-02T00:09:41;100381.28;;;13.74;33.39
80414;BME280;69758;52.580;13.068;2024-03-02T00:12:07;100381.65;;;13.09;33.29
80414;BME280;69758;52.580;13.068;2024-03-02T00:14:32;100379.82;;;13.61;33.32
80414;BME280;69758;52.580;13.068;2024-03-02T00:16:57;100380.03;;;13.65;33.26
80414;BME280;69758;52.580;13.068;2024-03-02T00:19:22;100376.13;;;13.74;33.24
80414;BME280;69758;52.580;13.068;2024-03-02T00:21:47;100370.52;;;13.80;33.19
80414;BME280;69758;52.580;13.068;2024-03-02T00:24:19;100369.36;;;13.74;33.29
80414;BME280;69758;52.580;13.068;2024-03-02T00:26:38;100368.79;;;13.76;33.46
80414;BME280;69758;52.580;13.068;2024-03-02T00:29:04;100369.12;;;13.51;33.50
80414;BME280;69758;52.580;13.068;2024-03-02T00:31:28;100371.86;;;13.75;33.54
80414;BME280;69758;52.580;13.068;2024-03-02T00:33:54;100374.34;;;13.78;33.60
80414;BME280;69758;52.580;13.068;2024-03-02T00:36:25;100373.61;;;13.81;33.59
80414;BME280;69758;52.580;13.068;2024-03-02T00:38:46;100370.62;;;13.82;33.55
80414;BME280;69758;52.580;13.068;2024-03-02T00:41:16;100370.50;;;13.88;33.49
80414;BME280;69758;52.580;13.068;2024-03-02T00:43:42;100369.73;;;13.92;33.46
80414;BME280;69758;52.580;13.068;2024-03-02T00:46:01;100365.85;;;13.93;33.53
80414;BME280;69758;52.580;13.068;2024-03-02T00:48:26;100362.11;;;13.89;33.73
80414;BME280;69758;52.580;13.068;2024-03-02T00:50:52;100361.62;;;13.83;33.82
80414;BME280;69758;52.580;13.068;2024-03-02T00:53:18;100360.04;;;13.80;33.98
80414;BME280;69758;52.580;13.068;2024-03-02T00:55:43;100360.22;;;13.79;34.13
80414;BME280;69758;52.580;13.068;2024-03-02T00:58:09;100361.40;;;13.57;34.15
80414;BME280;69758;52.580;13.068;2024-03-02T01:00:34;100360.30;;;13.55;34.17
80414;BME280;69758;52.580;13.068;2024-03-02T01:02:59;100360.39;;;13.82;34.17
80414;BME280;69758;52.580;13.068;2024-03-02T01:05:25;100358.34;;;13.81;34.24
80414;BME280;69758;52.580;13.068;2024-03-02T01:07:51;100354.85;;;13.75;34.40
80414;BME280;69758;52.580;13.068;2024-03-02T01:10:17;100354.90;;;13.71;34.50
80414;BME280;69758;52.580;13.068;2024-03-02T01:12:42;100353.78;;;13.52;34.50
80414;BME280;69758;52.580;13.068;2024-03-02T01:15:08;100356.03;;;13.55;34.49
80414;BME280;69758;52.580;13.068;2024-03-02T01:17:33;100355.93;;;13.80;34.57
80414;BME280;69758;52.580;13.068;2024-03-02T01:19:59;100353.58;;;13.82;34.63
80414;BME280;69758;52.580;13.068;2024-03-02T01:22:24;100351.19;;;13.81;34.59
80414;BME280;69758;52.580;13.068;2024-03-02T01:24:49;100348.50;;;13.82;34.58
80414;BME280;69758;52.580;13.068;2024-03-02T01:27:15;100342.45;;;13.81;34.66
80414;BME280;69758;52.580;13.068;2024-03-02T01:29:40;100340.85;;;13.81;34.67
80414;BME280;69758;52.580;13.068;2024-03-02T01:32:06;100342.97;;;13.41;34.67
80414;BME280;69758;52.580;13.068;2024-03-02T01:34:31;100342.21;;;13.99;34.53
80414;BME280;69758;52.580;13.068;2024-03-02T01:36:56;100342.86;;;14.00;34.54
80414;BME280;69758;52.580;13.068;2024-03-02T01:39:22;100338.03;;;13.97;34.64
80414;BME280;69758;52.580;13.068;2024-03-02T01:41:47;100333.35;;;13.91;34.77
80414;BME280;69758;52.580;13.068;2024-03-02T01:44:13;100327.42;;;13.86;34.78
80414;BME280;69758;52.580;13.068;2024-03-02T01:46:38;100326.82;;;13.58;34.87
80414;BME280;69758;52.580;13.068;2024-03-02T01:49:05;100324.44;;;13.58;34.94
80414;BME280;69758;52.580;13.068;2024-03-02T01:51:30;100322.83;;;13.82;34.96
80414;BME280;69758;52.580;13.068;2024-03-02T01:53:55;100321.62;;;13.82;34.91
80414;BME280;69758;52.580;13.068;2024-03-02T01:56:21;100318.32;;;13.85;34.89
80414;BME280;69758;52.580;13.068;2024-03-02T01:58:46;100314.37;;;13.84;34.91
80414;BME280;69758;52.580;13.068;2024-03-02T02:01:11;100315.89;;;13.84;34.94
80414;BME280;69758;52.580;13.068;2024-03-02T02:03:37;100315.44;;;14.06;34.97
80414;BME280;69758;52.580;13.068;2024-03-02T02:06:03;100311.02;;;13.81;35.01
80414;BME280;69758;52.580;13.068;2024-03-02T02:08:28;100308.95;;;13.83;35.02
80414;BME280;69758;52.580;13.068;2024-03-02T02:10:53;100305.39;;;13.87;35.02
80414;BME280;69758;52.580;13.068;2024-03-02T02:13:19;100300.33;;;13.86;35.09
80414;BME280;69758;52.580;13.068;2024-03-02T02:15:44;100295.42;;;13.81;35.22
80414;BME280;69758;52.580;13.068;2024-03-02T02:18:10;100293.36;;;13.80;35.26
80414;BME280;69758;52.580;13.068;2024-03-02T02:20:35;100294.51;;;13.77;35.36
80414;BME280;69758;52.580;13.068;2024-03-02T02:23:02;100290.43;;;14.02;35.32
80414;BME280;69758;52.580;13.068;2024-03-02T02:25:27;100285.98;;;13.77;35.33
80414;BME280;69758;52.580;13.068;2024-03-02T02:27:53;100284.12;;;13.78;35.30
80414;BME280;69758;52.580;13.068;2024-03-02T02:30:19;100281.16;;;13.80;35.22
80414;BME280;69758;52.580;13.068;2024-03-02T02:32:43;100278.16;;;13.80;35.22
80414;BME280;69758;52.580;13.068;2024-03-02T02:35:08;100280.55;;;13.81;35.22
80414;BME280;69758;52.580;13.068;2024-03-02T02:37:33;100281.16;;;13.58;35.27
80414;BME280;69758;52.580;13.068;2024-03-02T02:39:59;100280.89;;;13.82;35.23
80414;BME280;69758;52.580;13.068;2024-03-02T02:42:25;100280.23;;;13.85;35.14
80414;BME280;69758;52.580;13.068;2024-03-02T02:44:51;100282.36;;;13.87;35.09
80414;BME280;69758;52.580;13.068;2024-03-02T02:47:16;100280.46;;;13.63;35.07
80414;BME280;69758;52.580;13.068;2024-03-02T02:49:41;100283.29;;;13.87;35.07
80414;BME280;69758;52.580;13.068;2024-03-02T02:52:07;100282.75;;;13.72;34.96
80414;BME280;69758;52.580;13.068;2024-03-02T02:54:32;100284.08;;;13.97;34.85
80414;BME280;69758;52.580;13.068;2024-03-02T02:56:58;100284.41;;;13.94;34.84
80414;BME280;69758;52.580;13.068;2024-03-02T02:59:23;100283.68;;;13.93;34.89
80414;BME280;69758;52.580;13.068;2024-03-02T03:01:49;100282.16;;;13.93;34.93
80414;BME280;69758;52.580;13.068;2024-03-02T03:04:14;100282.45;;;13.71;34.89
80414;BME280;69758;52.580;13.068;2024-03-02T03:06:40;100282.12;;;13.93;34.91
80414;BME280;69758;52.580;13.068;2024-03-02T03:09:05;100281.84;;;13.68;34.99
80414;BME280;69758;52.580;13.068;2024-03-02T03:11:30;100281.12;;;13.91;35.06
80414;BME280;69758;52.580;13.068;2024-03-02T03:13:55;100277.84;;;13.94;35.07
80414;BME280;69758;52.580;13.068;2024-03-02T03:16:22;100276.98;;;13.97;35.06
80414;BME280;69758;52.580;13.068;2024-03-02T03:18:47;100281.56;;;14.01;35.01
80414;BME280;69758;52.580;13.068;2024-03-02T03:21:12;100285.47;;;14.05;34.92
80414;BME280;69758;52.580;13.068;2024-03-02T03:23:37;100285.23;;;14.03;34.90
80414;BME280;69758;52.580;13.068;2024-03-02T03:26:04;100284.37;;;14.05;34.90
80414;BME280;69758;52.580;13.068;2024-03-02T03:28:29;100282.41;;;14.09;35.00
80414;BME280;69758;52.580;13.068;2024-03-02T03:30:54;100282.07;;;14.16;35.05
80414;BME280;69758;52.580;13.068;2024-03-02T03:33:20;100281.93;;;14.06;35.24
80414;BME280;69758;52.580;13.068;2024-03-02T03:35:46;100280.63;;;14.28;35.38
80414;BME280;69758;52.580;13.068;2024-03-02T03:38:11;100285.21;;;13.80;35.35
80414;BME280;69758;52.580;13.068;2024-03-02T03:40:36;100285.99;;;14.05;35.37
80414;BME280;69758;52.580;13.068;2024-03-02T03:43:04;100288.61;;;14.08;35.33
80414;BME280;69758;52.580;13.068;2024-03-02T03:45:28;100289.68;;;14.36;35.28
80414;BME280;69758;52.580;13.068;2024-03-02T03:47:54;100288.64;;;14.13;35.26
80414;BME280;69758;52.580;13.068;2024-03-02T03:50:19;100288.77;;;13.92;35.27
80414;BME280;69758;52.580;13.068;2024-03-02T03:52:45;100294.26;;;14.22;35.34
80414;BME280;69758;52.580;13.068;2024-03-02T03:55:11;100294.76;;;14.27;35.36
80414;BME280;69758;52.580;13.068;2024-03-02T03:57:36;100296.07;;;14.07;35.34
80414;BME280;69758;52.580;13.068;2024-03-02T04:00:03;100291.87;;;14.35;35.35
80414;BME280;69758;52.580;13.068;2024-03-02T04:02:27;100293.97;;;14.40;35.36
80414;BME280;69758;52.580;13.068;2024-03-02T04:04:52;100301.48;;;14.42;35.33
80414;BME280;69758;52.580;13.068;2024-03-02T04:07:18;100297.33;;;14.44;35.29
80414;BME280;69758;52.580;13.068;2024-03-02T04:09:43;100290.82;;;14.23;35.30
80414;BME280;69758;52.580;13.068;2024-03-02T04:12:08;100294.81;;;14.24;35.35
80414;BME280;69758;52.580;13.068;2024-03-02T04:14:33;100301.10;;;14.25;35.39
80414;BME280;69758;52.580;13.068;2024-03-02T04:16:59;100304.42;;;14.52;35.39
80414;BME280;69758;52.580;13.068;2024-03-02T04:19:24;100309.44;;;14.54;35.42
80414;BME280;69758;52.580;13.068;2024-03-02T04:21:50;100311.00;;;14.55;35.39
80414;BME280;69758;52.580;13.068;2024-03-02T04:24:15;100310.76;;;14.33;35.39
80414;BME280;69758;52.580;13.068;2024-03-02T04:26:41;100308.42;;;14.37;35.31
80414;BME280;69758;52.580;13.068;2024-03-02T04:29:06;100308.32;;;14.61;35.26
80414;BME280;69758;52.580;13.068;2024-03-02T04:31:32;100313.66;;;14.52;35.45
80414;BME280;69758;52.580;13.068;2024-03-02T04:33:57;100316.10;;;14.52;35.54
80414;BME280;69758;52.580;13.068;2024-03-02T04:36:23;100313.86;;;14.31;35.56
80414;BME280;69758;52.580;13.068;2024-03-02T04:38:48;100315.55;;;14.35;35.57
80414;BME280;69758;52.580;13.068;2024-03-02T04:41:13;100319.32;;;14.63;35.52
80414;BME280;69758;52.580;13.068;2024-03-02T04:43:39;100320.75;;;14.41;35.47
80414;BME280;69758;52.580;13.068;2024-03-02T04:46:05;100325.42;;;14.41;35.44
80414;BME280;69758;52.580;13.068;2024-03-02T04:48:30;100326.90;;;14.41;35.42
80414;BME280;69758;52.580;13.068;2024-03-02T04:50:55;100326.52;;;14.42;35.44
80414;BME280;69758;52.580;13.068;2024-03-02T04:53:20;100324.77;;;14.41;35.46
80414;BME280;69758;52.580;13.068;2024-03-02T04:55:46;100326.17;;;14.62;35.57
80414;BME280;69758;52.580;13.068;2024-03-02T04:58:11;100327.15;;;14.17;35.67
80414;BME280;69758;52.580;13.068;2024-03-02T05:00:37;100327.09;;;14.21;35.69
80414;BME280;69758;52.580;13.068;2024-03-02T05:03:03;100332.09;;;14.48;35.72
80414;BME280;69758;52.580;13.068;2024-03-02T05:05:27;100332.96;;;14.28;35.73
80414;BME280;69758;52.580;13.068;2024-03-02T05:07:53;100334.76;;;14.82;35.69
80414;BME280;69758;52.580;13.068;2024-03-02T05:10:18;100340.62;;;14.84;35.66
80414;BME280;69758;52.580;13.068;2024-03-02T05:12:43;100342.70;;;14.62;35.62
80414;BME280;69758;52.580;13.068;2024-03-02T05:15:09;100336.45;;;14.41;35.56
80414;BME280;69758;52.580;13.068;2024-03-02T05:17:34;100337.18;;;14.67;35.56
80414;BME280;69758;52.580;13.068;2024-03-02T05:19:59;100337.20;;;14.46;35.58
80414;BME280;69758;52.580;13.068;2024-03-02T05:22:25;100338.43;;;14.94;35.60
80414;BME280;69758;52.580;13.068;2024-03-02T05:24:50;100339.15;;;14.46;35.64
80414;BME280;69758;52.580;13.068;2024-03-02T05:27:15;100341.69;;;14.77;35.61
80414;BME280;69758;52.580;13.068;2024-03-02T05:29:41;100343.41;;;14.55;35.64
80414;BME280;69758;52.580;13.068;2024-03-02T05:32:07;100347.47;;;14.30;35.66
80414;BME280;69758;52.580;13.068;2024-03-02T05:34:32;100351.66;;;14.80;35.59
80414;BME280;69758;52.580;13.068;2024-03-02T05:37:03;100353.44;;;14.79;35.70
80414;BME280;69758;52.580;13.068;2024-03-02T05:39:23;100357.55;;;14.60;35.82
80414;BME280;69758;52.580;13.068;2024-03-02T05:41:53;100360.57;;;15.06;35.79
80414;BME280;69758;52.580;13.068;2024-03-02T05:44:14;100357.36;;;14.56;35.83
80414;BME280;69758;52.580;13.068;2024-03-02T05:46:40;100361.91;;;14.54;35.85
80414;BME280;69758;52.580;13.068;2024-03-02T05:49:05;100363.03;;;14.35;35.78
80414;BME280;69758;52.580;13.068;2024-03-02T05:51:31;100363.53;;;14.83;35.80
80414;BME280;69758;52.580;13.068;2024-03-02T05:53:56;100364.49;;;14.83;35.78
80414;BME280;69758;52.580;13.068;2024-03-02T05:56:21;100367.02;;;14.64;35.77
80414;BME280;69758;52.580;13.068;2024-03-02T05:58:47;100368.56;;;14.66;35.74
80414;BME280;69758;52.580;13.068;2024-03-02T06:01:13;100370.31;;;15.13;35.83
80414;BME280;69758;52.580;13.068;2024-03-02T06:03:39;100376.87;;;14.88;35.91
80414;BME280;69758;52.580;13.068;2024-03-02T06:06:04;100386.16;;;14.41;35.84
80414;BME280;69758;52.580;13.068;2024-03-02T06:08:29;100389.89;;;15.15;35.83
80414;BME280;69758;52.580;13.068;2024-03-02T06:10:54;100391.07;;;14.89;35.85
80414;BME280;69758;52.580;13.068;2024-03-02T06:13:20;100398.32;;;14.87;35.87
80414;BME280;69758;52.580;13.068;2024-03-02T06:15:45;100401.76;;;14.61;35.93
80414;BME280;69758;52.580;13.068;2024-03-02T06:18:11;100401.60;;;14.63;35.92
80414;BME280;69758;52.580;13.068;2024-03-02T06:20:36;100396.33;;;14.89;35.91
80414;BME280;69758;52.580;13.068;2024-03-02T06:23:03;100394.41;;;15.14;35.95
80414;BME280;69758;52.580;13.068;2024-03-02T06:25:27;100396.19;;;14.92;35.93
80414;BME280;69758;52.580;13.068;2024-03-02T06:27:53;100397.16;;;14.96;35.90
80414;BME280;69758;52.580;13.068;2024-03-02T06:30:18;100394.44;;;14.74;35.93
80414;BME280;69758;52.580;13.068;2024-03-02T06:32:44;100394.56;;;14.99;36.01
80414;BME280;69758;52.580;13.068;2024-03-02T06:35:10;100395.22;;;14.75;36.05
80414;BME280;69758;52.580;13.068;2024-03-02T06:37:36;100394.71;;;14.98;36.08
80414;BME280;69758;52.580;13.068;2024-03-02T06:40:01;100389.73;;;14.77;36.11
80414;BME280;69758;52.580;13.068;2024-03-02T06:42:26;100392.68;;;14.77;36.12
80414;BME280;69758;52.580;13.068;2024-03-02T06:44:51;100388.31;;;14.80;36.09
80414;BME280;69758;52.580;13.068;2024-03-02T06:47:16;100389.79;;;14.83;36.03
80414;BME280;69758;52.580;13.068;2024-03-02T06:49:42;100388.43;;;15.07;36.04
80414;BME280;69758;52.580;13.068;2024-03-02T06:52:07;100387.12;;;14.60;36.09
80414;BME280;69758;52.580;13.068;2024-03-02T06:54:33;100381.70;;;14.88;36.15
80414;BME280;69758;52.580;13.068;2024-03-02T06:56:58;100376.96;;;14.94;36.14
80414;BME280;69758;52.580;13.068;2024-03-02T06:59:24;100377.26;;;15.04;36.10
80414;BME280;69758;52.580;13.068;2024-03-02T07:01:49;100380.61;;;14.88;36.07
80414;BME280;69758;52.580;13.068;2024-03-02T07:04:15;100381.65;;;15.14;36.07
80414;BME280;69758;52.580;13.068;2024-03-02T07:06:40;100384.05;;;15.18;36.09
80414;BME280;69758;52.580;13.068;2024-03-02T07:09:05;100395.12;;;14.82;35.99
80414;BME280;69758;52.580;13.068;2024-03-02T07:11:31;100400.74;;;15.31;36.01
80414;BME280;69758;52.580;13.068;2024-03-02T07:13:56;100399.74;;;15.12;36.13
80414;BME280;69758;52.580;13.068;2024-03-02T07:16:22;100398.41;;;15.43;36.17
80414;BME280;69758;52.580;13.068;2024-03-02T07:18:47;100399.12;;;15.42;36.23
80414;BME280;69758;52.580;13.068;2024-03-02T07:21:13;100399.99;;;15.11;36.32
80414;BME280;69758;52.580;13.068;2024-03-02T07:23:38;100407.55;;;15.17;36.19
80414;BME280;69758;52.580;13.068;2024-03-02T07:26:04;100412.92;;;15.21;36.08
80414;BME280;69758;52.580;13.068;2024-03-02T07:28:29;100415.23;;;15.66;36.08
80414;BME280;69758;52.580;13.068;2024-03-02T07:30:58;100415.01;;;15.41;36.12
80414;BME280;69758;52.580;13.068;2024-03-02T07:33:20;100412.60;;;15.61;36.16
80414;BME280;69758;52.580;13.068;2024-03-02T07:35:45;100416.41;;;15.35;36.16
80414;BME280;69758;52.580;13.068;2024-03-02T07:38:11;100421.30;;;15.12;36.13
80414;BME280;69758;52.580;13.068;2024-03-02T07:40:36;100426.21;;;15.42;36.03
80414;BME280;69758;52.580;13.068;2024-03-02T07:43:02;100429.30;;;15.44;36.00
80414;BME280;69758;52.580;13.068;2024-03-02T07:45:27;100430.15;;;15.39;36.12
80414;BME280;69758;52.580;13.068;2024-03-02T07:47:52;100432.46;;;15.48;36.02
80414;BME280;69758;52.580;13.068;2024-03-02T07:50:17;100433.23;;;15.23;36.02
80414;BME280;69758;52.580;13.068;2024-03-02T07:52:43;100433.60;;;15.48;36.02
80414;BME280;69758;52.580;13.068;2024-03-02T07:55:08;100437.25;;;15.05;35.96
80414;BME280;69758;52.580;13.068;2024-03-02T07:57:34;100440.69;;;15.56;35.90
80414;BME280;69758;52.580;13.068;2024-03-02T07:59:59;100446.27;;;15.59;35.84
80414;BME280;69758;52.580;13.068;2024-03-02T08:02:24;100448.57;;;15.11;35.82
80414;BME280;69758;52.580;13.068;2024-03-02T08:04:50;100451.49;;;15.35;35.86
80414;BME280;69758;52.580;13.068;2024-03-02T08:07:15;100452.39;;;15.61;35.84
80414;BME280;69758;52.580;13.068;2024-03-02T08:09:40;100456.22;;;15.07;35.91
80414;BME280;69758;52.580;13.068;2024-03-02T08:12:06;100458.63;;;15.58;35.88
80414;BME280;69758;52.580;13.068;2024-03-02T08:14:31;100459.70;;;15.45;35.99
80414;BME280;69758;52.580;13.068;2024-03-02T08:16:56;100460.50;;;15.33;36.19
80414;BME280;69758;52.580;13.068;2024-03-02T08:19:22;100461.48;;;15.27;36.28
80414;BME280;69758;52.580;13.068;2024-03-02T08:21:47;100463.75;;;15.05;36.29
80414;BME280;69758;52.580;13.068;2024-03-02T08:24:12;100465.28;;;15.38;36.22
80414;BME280;69758;52.580;13.068;2024-03-02T08:26:37;100464.09;;;15.47;36.09
80414;BME280;69758;52.580;13.068;2024-03-02T08:29:03;100467.65;;;15.54;36.02
80414;BME280;69758;52.580;13.068;2024-03-02T08:31:28;100473.15;;;15.66;35.90
80414;BME280;69758;52.580;13.068;2024-03-02T08:33:53;100472.10;;;15.24;35.88
80414;BME280;69758;52.580;13.068;2024-03-02T08:36:23;100475.82;;;15.73;35.93
80414;BME280;69758;52.580;13.068;2024-03-02T08:38:44;100480.89;;;15.66;36.08
80414;BME280;69758;52.580;13.068;2024-03-02T08:41:10;100481.47;;;15.44;36.05
80414;BME280;69758;52.580;13.068;2024-03-02T08:43:35;100483.98;;;15.69;36.04
80414;BME280;69758;52.580;13.068;2024-03-02T08:46:01;100483.93;;;15.67;36.07
80414;BME280;69758;52.580;13.068;2024-03-02T08:48:26;100487.45;;;15.21;36.04
80414;BME280;69758;52.580;13.068;2024-03-02T08:50:52;100489.69;;;15.68;36.03
80414;BME280;69758;52.580;13.068;2024-03-02T08:53:18;100489.54;;;15.49;35.99
80414;BME280;69758;52.580;13.068;2024-03-02T08:55:43;100491.93;;;15.68;36.06
80414;BME280;69758;52.580;13.068;2024-03-02T08:58:08;100497.41;;;15.23;36.02
80414;BME280;69758;52.580;13.068;2024-03-02T09:00:33;100502.14;;;15.75;36.00
80414;BME280;69758;52.580;13.068;2024-03-02T09:02:59;100503.38;;;15.49;36.27
80414;BME280;69758;52.580;13.068;2024-03-02T09:05:24;100502.52;;;15.42;36.39
80414;BME280;69758;52.580;13.068;2024-03-02T09:07:50;100502.91;;;15.44;36.42
80414;BME280;69758;52.580;13.068;2024-03-02T09:10:16;100504.20;;;15.20;36.40
80414;BME280;69758;52.580;13.068;2024-03-02T09:12:41;100505.73;;;15.41;36.47
80414;BME280;69758;52.580;13.068;2024-03-02T09:15:07;100504.03;;;15.52;36.41
80414;BME280;69758;52.580;13.068;2024-03-02T09:17:32;100501.44;;;15.30;36.36
80414;BME280;69758;52.580;13.068;2024-03-02T09:19:57;100505.40;;;15.32;36.36
80414;BME280;69758;52.580;13.068;2024-03-02T09:22:22;100503.90;;;15.30;36.41
80414;BME280;69758;52.580;13.068;2024-03-02T09:24:47;100505.43;;;15.59;36.36
80414;BME280;69758;52.580;13.068;2024-03-02T09:27:12;100508.93;;;15.45;36.51
80414;BME280;69758;52.580;13.068;2024-03-02T09:29:37;100515.07;;;15.29;36.52
80414;BME280;69758;52.580;13.068;2024-03-02T09:32:03;100517.98;;;15.12;36.45
80414;BME280;69758;52.580;13.068;2024-03-02T09:34:28;100521.01;;;15.38;36.43
80414;BME280;69758;52.580;13.068;2024-03-02T09:36:53;100523.06;;;15.43;36.35
80414;BME280;69758;52.580;13.068;2024-03-02T09:39:18;100520.69;;;15.79;36.23
80414;BME280;69758;52.580;13.068;2024-03-02T09:41:44;100524.96;;;15.64;36.11
80414;BME280;69758;52.580;13.068;2024-03-02T09:44:09;100527.79;;;15.70;36.00
80414;BME280;69758;52.580;13.068;2024-03-02T09:46:34;100532.49;;;15.15;36.35
80414;BME280;69758;52.580;13.068;2024-03-02T09:49:00;100529.21;;;15.57;36.60
80414;BME280;69758;52.580;13.068;2024-03-02T09:51:26;100526.04;;;15.45;36.56
80414;BME280;69758;52.580;13.068;2024-03-02T09:53:51;100520.96;;;15.60;36.51
80414;BME280;69758;52.580;13.068;2024-03-02T09:56:17;100520.38;;;15.33;36.34
80414;BME280;69758;52.580;13.068;2024-03-02T09:58:42;100519.48;;;15.00;36.63
80414;BME280;69758;52.580;13.068;2024-03-02T10:01:08;100524.82;;;15.51;36.39
80414;BME280;69758;52.580;13.068;2024-03-02T10:03:34;100522.44;;;15.75;36.39
80414;BME280;69758;52.580;13.068;2024-03-02T10:08:25;100522.19;;;15.69;36.33
80414;BME280;69758;52.580;13.068;2024-03-02T10:10:50;100521.96;;;15.43;36.39
80414;BME280;69758;52.580;13.068;2024-03-02T10:13:16;100520.43;;;15.61;36.30
80414;BME280;69758;52.580;13.068;2024-03-02T10:15:42;100521.21;;;15.83;36.17
80414;BME280;69758;52.580;13.068;2024-03-02T10:18:09;100516.42;;;15.57;35.99
80414;BME280;69758;52.580;13.068;2024-03-02T10:20:33;100514.13;;;15.92;35.97
80414;BME280;69758;52.580;13.068;2024-03-02T10:23:09;100512.04;;;16.06;35.87
80414;BME280;69758;52.580;13.068;2024-03-02T10:25:30;100509.04;;;16.18;35.78
80414;BME280;69758;52.580;13.068;2024-03-02T10:27:50;100508.03;;;16.21;35.93
80414;BME280;69758;52.580;13.068;2024-03-02T10:30:15;100512.97;;;16.03;35.80
80414;BME280;69758;52.580;13.068;2024-03-02T10:32:40;100510.41;;;16.37;35.74
80414;BME280;69758;52.580;13.068;2024-03-02T10:35:06;100507.42;;;16.51;35.71
80414;BME280;69758;52.580;13.068;2024-03-02T10:37:32;100506.68;;;16.55;35.70
80414;BME280;69758;52.580;13.068;2024-03-02T10:39:57;100503.62;;;16.70;35.53
80414;BME280;69758;52.580;13.068;2024-03-02T10:42:22;100501.86;;;16.80;35.45
80414;BME280;69758;52.580;13.068;2024-03-02T10:44:48;100500.97;;;16.59;35.34
80414;BME280;69758;52.580;13.068;2024-03-02T10:47:14;100499.31;;;16.61;35.35
80414;BME280;69758;52.580;13.068;2024-03-02T10:49:42;100502.14;;;16.61;34.81
80414;BME280;69758;52.580;13.068;2024-03-02T10:52:05;100507.76;;;16.59;34.93
80414;BME280;69758;52.580;13.068;2024-03-02T10:54:30;100511.93;;;16.86;34.89
80414;BME280;69758;52.580;13.068;2024-03-02T10:56:58;100513.29;;;16.79;35.28
80414;BME280;69758;52.580;13.068;2024-03-02T10:59:27;100512.73;;;16.72;35.32
80414;BME280;69758;52.580;13.068;2024-03-02T11:01:47;100511.28;;;16.84;35.26
80414;BME280;69758;52.580;13.068;2024-03-02T11:04:13;100516.34;;;16.77;35.69
80414;BME280;69758;52.580;13.068;2024-03-02T11:06:38;100516.58;;;16.87;35.20
80414;BME280;69758;52.580;13.068;2024-03-02T11:09:06;100514.53;;;16.90;35.02
80414;BME280;69758;52.580;13.068;2024-03-02T11:11:32;100513.43;;;16.81;34.33
80414;BME280;69758;52.580;13.068;2024-03-02T11:13:57;100508.92;;;17.12;34.54
80414;BME280;69758;52.580;13.068;2024-03-02T11:16:26;100508.79;;;16.84;34.73
80414;BME280;69758;52.580;13.068;2024-03-02T11:18:46;100507.25;;;16.96;34.45
80414;BME280;69758;52.580;13.068;2024-03-02T11:21:11;100503.75;;;16.77;34.57
80414;BME280;69758;52.580;13.068;2024-03-02T11:23:36;100502.59;;;16.88;34.90
80414;BME280;69758;52.580;13.068;2024-03-02T11:28:34;100509.29;;;16.82;34.02
80414;BME280;69758;52.580;13.068;2024-03-02T11:30:52;100507.13;;;16.66;33.73
80414;BME280;69758;52.580;13.068;2024-03-02T11:33:23;100507.19;;;16.79;34.10
80414;BME280;69758;52.580;13.068;2024-03-02T11:35:45;100507.00;;;16.95;33.43
80414;BME280;69758;52.580;13.068;2024-03-02T11:38:09;100501.78;;;17.11;33.23
80414;BME280;69758;52.580;13.068;2024-03-02T11:40:32;100499.93;;;17.21;33.84
80414;BME280;69758;52.580;13.068;2024-03-02T11:42:59;100500.04;;;17.41;34.00
80414;BME280;69758;52.580;13.068;2024-03-02T11:45:24;100498.83;;;17.53;34.15
80414;BME280;69758;52.580;13.068;2024-03-02T11:47:50;100500.50;;;17.75;34.57
80414;BME280;69758;52.580;13.068;2024-03-02T11:50:14;100504.40;;;17.39;34.08
80414;BME280;69758;52.580;13.068;2024-03-02T11:52:40;100498.16;;;17.49;33.66
80414;BME280;69758;52.580;13.068;2024-03-02T11:55:05;100495.86;;;17.84;34.74
80414;BME280;69758;52.580;13.068;2024-03-02T11:57:29;100500.48;;;18.47;33.81
80414;BME280;69758;52.580;13.068;2024-03-02T11:59:55;100502.63;;;18.44;33.22
80414;BME280;69758;52.580;13.068;2024-03-02T12:02:21;100502.98;;;18.73;32.53
80414;BME280;69758;52.580;13.068;2024-03-02T12:04:46;100502.47;;;18.95;31.76
80414;BME280;69758;52.580;13.068;2024-03-02T12:07:11;100504.12;;;18.76;31.77
80414;BME280;69758;52.580;13.068;2024-03-02T12:09:36;100508.50;;;19.17;31.85
80414;BME280;69758;52.580;13.068;2024-03-02T12:12:03;100509.19;;;19.20;31.67
80414;BME280;69758;52.580;13.068;2024-03-02T12:14:26;100509.06;;;18.99;30.86
80414;BME280;69758;52.580;13.068;2024-03-02T12:16:52;100509.56;;;18.83;31.29
80414;BME280;69758;52.580;13.068;2024-03-02T12:19:17;100508.58;;;19.23;31.47
80414;BME280;69758;52.580;13.068;2024-03-02T12:21:43;100505.50;;;19.54;31.00
80414;BME280;69758;52.580;13.068;2024-03-02T12:24:08;100499.36;;;19.22;30.47
80414;BME280;69758;52.580;13.068;2024-03-02T12:26:34;100497.01;;;19.42;30.63
80414;BME280;69758;52.580;13.068;2024-03-02T12:29:00;100495.05;;;19.20;29.20
80414;BME280;69758;52.580;13.068;2024-03-02T12:31:25;100491.09;;;18.73;29.90
80414;BME280;69758;52.580;13.068;2024-03-02T12:33:50;100489.51;;;18.94;29.53
80414;BME280;69758;52.580;13.068;2024-03-02T12:36:15;100489.38;;;18.71;30.40